Edmonton International Airport

CYEG · 艾伯塔, 加拿大

罗盘
风向 的 风向 290° Edmonton International Airport 2/20
风向 到 风: 15 kt, 阵阵 24 kt, 4 beaufort

4 kt

15 kt
改变
0 6.000 12.000 18.000 24.000 30.000
FEW 24.000 ft
METAR CZVL 032200Z AUTO 29015G24KT 9SM FEW240 M07/M15 A2993 RMK SLP193

METAR Edmonton International Airport - CYEG/YEG

Edmonton International Airport是,加拿大中的大型机场。 该机场有2条跑道: 2/20 和 12/30. 该领域的国际民航组织标志是CYEG 它的国际航空运输协会代码是YEG.

这份报告是针对2022年12月3日 15:00, 当地时间在Edmonton / Villeneuve Airport进行的。

机场观察

风向为290°,速度为15 kt。 已测得24 kt的阵风。

可见度为9 mi。

有几云在24.000 ft的高度。 没有观察到天花板。

温度为-7 °C,阵风为-18 °C。 露点为-15 °C,相对湿度为53%。 海平面上的气压为29,93 inHg (QNH)。

白天

今天,太阳从08:29升起,在16:18降落。 这适用于Edmonton International Airport,世界夏令时可能有所不同。 当地时间与世界标准时间之间的时差为-7 小时。 当前,没有夏令时有效。

公司介绍

我们没有关于这个机场的公司信息。

体会

到Vliegles.nl去找飞行课程,跳伞和其他飞行体验。 浏览页面,了解Edmonton International Airport附近所有可用的活动。 你也可以使用搜索功能来寻找你所在地附近的特定飞行课程、跳伞或其他飞行体验。

跑道

Id 标题 侧风 逆风 侧风 %
2/20 034°-214° 15-23 kt 4-6 kt 97 %
12/30 135°-315° 6-10 kt 14-22 kt 42 %

逆风成分最大的方向会被突出显示,并用于横风计算。 这并不一定意味着这个方向在使用。

乌云

24.000 ft FEW 几云

温度 & 天气

温度 -7 °C
露点 -15 °C
相对湿度 53%
风寒 -18 °C
Kp-index 0 (0-9)

评论

SLP193海平面压力为30,10 inHg (30,10 inHg)

白天

日出
08:32
中午
12:25
日落
16:18 (1:00)

小工具

你想在你的网站上有一个关于Edmonton International Airport的当前航空天气(METAR)的小部件吗?

显示HTML代码

我们和第三方通过cookies跟踪您在我们网站上的互联网行为。如果你继续,我们认为你同意我们的饼干政策